createdAt,value
2017-03-07T00:00:57.644Z,53.22
2017-03-07T00:02:07.820Z,53.12
2017-03-07T00:03:18.513Z,53.28
2017-03-07T00:04:29.127Z,53.58
2017-03-07T00:05:39.340Z,53.38
2017-03-07T00:06:49.977Z,53.48
2017-03-07T00:08:00.598Z,53.6
2017-03-07T00:09:10.391Z,53.48
2017-03-07T00:10:20.586Z,53.31
2017-03-07T00:11:30.323Z,53.31
2017-03-07T00:12:40.079Z,53.6
2017-03-07T00:13:49.829Z,53.6
2017-03-07T00:14:59.837Z,53.58
2017-03-07T00:16:10.472Z,53.77
2017-03-07T00:17:20.639Z,53.6
2017-03-07T00:18:30.378Z,53.6
2017-03-07T00:19:41.038Z,53.79
2017-03-07T00:20:51.699Z,53.58
2017-03-07T00:22:02.316Z,53.86
2017-03-07T00:23:12.513Z,53.96
2017-03-07T00:24:23.130Z,53.86
2017-03-07T00:25:33.312Z,53.86
2017-03-07T00:26:43.136Z,54.17
2017-03-07T00:27:52.875Z,53.96
2017-03-07T00:29:03.084Z,53.99
2017-03-07T00:30:12.829Z,53.96
2017-03-07T00:31:22.583Z,53.89
2017-03-07T00:32:32.504Z,53.86
2017-03-07T00:33:42.729Z,54.05
2017-03-07T00:34:53.353Z,53.77
2017-03-07T00:36:03.534Z,53.86
2017-03-07T00:37:13.755Z,53.96
2017-03-07T00:38:24.424Z,53.96
2017-03-07T00:39:35.044Z,54.24
2017-03-07T00:40:45.219Z,54.15
2017-03-07T00:41:55.828Z,54.34
2017-03-07T00:43:06.885Z,54.34
2017-03-07T00:44:17.696Z,54.24
2017-03-07T00:45:27.452Z,54.53
2017-03-07T00:46:37.213Z,54.44
2017-03-07T00:47:46.958Z,54.44
2017-03-07T00:48:57.148Z,54.44
2017-03-07T00:50:07.378Z,54.34
2017-03-07T00:51:16.689Z,54.44
2017-03-07T00:52:26.444Z,54.44
2017-03-07T00:53:36.193Z,54.15
2017-03-07T00:54:45.942Z,54.44
2017-03-07T00:55:55.745Z,54.53
2017-03-07T00:57:05.933Z,54.24
2017-03-07T00:58:15.681Z,54.34
2017-03-07T00:59:26.297Z,54.44
2017-03-07T01:00:36.937Z,54.44
2017-03-07T01:01:47.592Z,54.44
2017-03-07T01:02:58.214Z,54.34
2017-03-07T01:04:07.950Z,54.15
2017-03-07T01:05:18.573Z,54.24
2017-03-07T01:06:27.881Z,54.05
2017-03-07T01:07:38.118Z,54.05
2017-03-07T01:08:48.289Z,54.15
2017-03-07T01:09:57.596Z,54.15
2017-03-07T01:11:07.770Z,54.44
2017-03-07T01:12:17.956Z,54.15
2017-03-07T01:13:27.926Z,54.44
2017-03-07T01:14:37.251Z,54.05
2017-03-07T01:15:46.591Z,54.05
2017-03-07T01:16:56.347Z,54.24
2017-03-07T01:18:06.538Z,54.05
2017-03-07T01:19:16.777Z,54.15
2017-03-07T01:20:26.511Z,54.34
2017-03-07T01:21:35.896Z,54.34
2017-03-07T01:22:46.083Z,54.24
2017-03-07T01:23:55.832Z,54.24
2017-03-07T01:25:05.205Z,54.34
2017-03-07T01:26:15.418Z,54.44
2017-03-07T01:27:26.055Z,54.44
2017-03-07T01:28:36.247Z,54.44
2017-03-07T01:29:46.880Z,54.44
2017-03-07T01:30:57.123Z,54.24
2017-03-07T01:32:06.880Z,54.44
2017-03-07T01:33:17.512Z,54.24
2017-03-07T01:34:27.274Z,54.05
2017-03-07T01:35:37.014Z,54.05
2017-03-07T01:36:46.829Z,54.15
2017-03-07T01:37:57.018Z,54.05
2017-03-07T01:39:06.323Z,54.05
2017-03-07T01:40:16.088Z,54.05
2017-03-07T01:41:25.404Z,54.24
2017-03-07T01:42:35.207Z,54.24
2017-03-07T01:43:44.934Z,54.05
2017-03-07T01:44:55.111Z,54.44
2017-03-07T01:46:05.734Z,54.05
2017-03-07T01:47:15.033Z,54.24
2017-03-07T01:48:24.999Z,54.53
2017-03-07T01:49:34.348Z,54.44
2017-03-07T01:50:44.541Z,55.01
2017-03-07T01:51:54.284Z,54.44
2017-03-07T01:53:03.629Z,55.11
2017-03-07T01:54:12.993Z,54.34
2017-03-07T01:55:23.174Z,54.24
2017-03-07T01:56:32.495Z,54.34
2017-03-07T01:57:43.122Z,55.01
2017-03-07T01:58:53.318Z,54.34
2017-03-07T02:00:03.557Z,54.34
2017-03-07T02:01:12.881Z,54.53
2017-03-07T02:02:22.197Z,54.24
2017-03-07T02:03:32.380Z,54.63
2017-03-07T02:04:42.123Z,54.63
2017-03-07T02:05:51.945Z,54.5
2017-03-07T02:07:01.251Z,54.5
2017-03-07T02:08:11.480Z,54.41
2017-03-07T02:09:21.240Z,54.41
2017-03-07T02:10:31.869Z,54.32
2017-03-07T02:11:42.116Z,54.24
2017-03-07T02:12:51.459Z,54.24
2017-03-07T02:14:05.118Z,54.22
2017-03-07T02:15:14.443Z,54.24
2017-03-07T02:16:23.745Z,54.12
2017-03-07T02:17:33.110Z,54.12
2017-03-07T02:18:42.855Z,54.34
2017-03-07T02:19:53.041Z,54.41
2017-03-07T02:21:02.840Z,54.32
2017-03-07T02:22:13.030Z,54.22
2017-03-07T02:23:22.834Z,54.32
2017-03-07T02:24:32.592Z,54.03
2017-03-07T02:25:42.782Z,54.41
2017-03-07T02:26:52.550Z,54.12
2017-03-07T02:28:02.304Z,54.5
2017-03-07T02:29:11.669Z,54.41
2017-03-07T02:30:20.999Z,54.41
2017-03-07T02:31:30.332Z,54.79
2017-03-07T02:32:40.081Z,55.27
2017-03-07T02:33:49.393Z,55.11
2017-03-07T02:34:59.644Z,55.08
2017-03-07T02:36:08.985Z,54.12
2017-03-07T02:37:18.294Z,54.22
2017-03-07T02:38:27.598Z,54.99
2017-03-07T02:39:37.815Z,55.18
2017-03-07T02:40:48.509Z,54.32
2017-03-07T02:41:57.843Z,55.08
2017-03-07T02:43:08.052Z,55.08
2017-03-07T02:44:17.813Z,55.08
2017-03-07T02:45:27.574Z,54.12
2017-03-07T02:46:37.386Z,54.99
2017-03-07T02:47:46.727Z,55.08
2017-03-07T02:48:56.470Z,54.22
2017-03-07T02:50:06.235Z,55.18
2017-03-07T02:51:15.560Z,54.6
2017-03-07T02:52:25.808Z,54.6
2017-03-07T02:53:35.562Z,54.99
2017-03-07T02:54:45.331Z,54.79
2017-03-07T02:55:55.977Z,54.89
2017-03-07T02:57:05.291Z,54.7
2017-03-07T02:58:14.676Z,54.79
2017-03-07T02:59:23.989Z,54.41
2017-03-07T03:00:33.322Z,54.41
2017-03-07T03:01:42.651Z,54.79
2017-03-07T03:02:52.892Z,54.6
2017-03-07T03:04:02.722Z,54.89
2017-03-07T03:05:12.481Z,54.6
2017-03-07T03:06:22.676Z,54.7
2017-03-07T03:07:31.988Z,54.6
2017-03-07T03:08:41.310Z,54.7
2017-03-07T03:09:51.119Z,54.6
2017-03-07T03:11:00.432Z,54.5
2017-03-07T03:12:10.626Z,54.6
2017-03-07T03:13:20.377Z,54.6
2017-03-07T03:14:31.019Z,54.79
2017-03-07T03:15:40.817Z,54.6
2017-03-07T03:16:50.120Z,54.6
2017-03-07T03:17:59.863Z,55.08
2017-03-07T03:19:09.185Z,55.08
2017-03-07T03:20:18.925Z,55.08
2017-03-07T03:21:28.731Z,54.89
2017-03-07T03:22:38.088Z,54.89
2017-03-07T03:23:47.433Z,54.89
2017-03-07T03:24:56.758Z,54.99
2017-03-07T03:26:06.514Z,55.08
2017-03-07T03:27:16.743Z,54.89
2017-03-07T03:28:26.482Z,54.89
2017-03-07T03:29:36.240Z,54.89
2017-03-07T03:30:46.443Z,54.99
2017-03-07T03:31:56.202Z,54.89
2017-03-07T03:33:06.023Z,55.08
2017-03-07T03:34:15.786Z,54.79
2017-03-07T03:35:25.980Z,54.99
2017-03-07T03:36:36.638Z,54.79
2017-03-07T03:37:46.390Z,54.79
2017-03-07T03:38:57.073Z,55.08
2017-03-07T03:40:07.262Z,54.89
2017-03-07T03:41:16.601Z,54.99
2017-03-07T03:42:26.776Z,55.08
2017-03-07T03:43:36.514Z,54.89
2017-03-07T03:44:45.886Z,55.08
2017-03-07T03:45:56.074Z,55.18
2017-03-07T03:47:06.693Z,55.18
2017-03-07T03:48:17.302Z,55.18
2017-03-07T03:49:27.062Z,54.89
2017-03-07T03:50:37.315Z,55.18
2017-03-07T03:51:47.078Z,55.08
2017-03-07T03:52:56.399Z,54.79
2017-03-07T03:54:06.156Z,54.99
2017-03-07T03:55:15.463Z,54.99
2017-03-07T03:56:25.726Z,54.99
2017-03-07T03:57:35.560Z,54.99
2017-03-07T03:58:45.747Z,54.99
2017-03-07T03:59:55.922Z,54.99
2017-03-07T04:01:06.123Z,54.99
2017-03-07T04:02:15.936Z,54.79
2017-03-07T04:03:25.253Z,54.89
2017-03-07T04:04:34.571Z,54.99
2017-03-07T04:05:44.758Z,54.79
2017-03-07T04:06:54.501Z,54.89
2017-03-07T04:08:04.314Z,54.89
2017-03-07T04:09:13.615Z,54.99
2017-03-07T04:10:23.831Z,55.27
2017-03-07T04:11:33.569Z,54.89
2017-03-07T04:12:43.343Z,55.08
2017-03-07T04:13:53.164Z,54.89
2017-03-07T04:15:02.477Z,55.08
2017-03-07T04:16:13.097Z,55.18
2017-03-07T04:17:23.315Z,54.99
2017-03-07T04:18:33.061Z,55.18
2017-03-07T04:19:42.413Z,54.89
2017-03-07T04:20:52.179Z,54.79
2017-03-07T04:22:01.951Z,55.08
2017-03-07T04:23:12.136Z,55.18
2017-03-07T04:24:22.319Z,55.18
2017-03-07T04:25:31.700Z,55.18
2017-03-07T04:26:41.436Z,55.18
2017-03-07T04:27:50.741Z,55.08
2017-03-07T04:29:00.491Z,55.18
2017-03-07T04:30:10.251Z,54.89
2017-03-07T04:31:20.493Z,55.08
2017-03-07T04:32:30.259Z,54.79
2017-03-07T04:33:39.573Z,54.89
2017-03-07T04:34:48.896Z,54.89
2017-03-07T04:35:58.641Z,55.18
2017-03-07T04:37:08.002Z,55.18
2017-03-07T04:38:18.607Z,54.79
2017-03-07T04:39:28.346Z,55.18
2017-03-07T04:40:37.653Z,55.18
2017-03-07T04:41:46.977Z,54.99
2017-03-07T04:42:56.814Z,55.18
2017-03-07T04:44:06.126Z,54.89
2017-03-07T04:45:15.428Z,55.36
2017-03-07T04:46:24.745Z,54.89
2017-03-07T04:47:34.946Z,55.08
2017-03-07T04:48:45.188Z,54.79
2017-03-07T04:49:54.513Z,55.36
2017-03-07T04:51:04.285Z,54.99
2017-03-07T04:52:14.039Z,54.89
2017-03-07T04:53:23.356Z,54.99
2017-03-07T04:54:33.164Z,55.08
2017-03-07T04:55:43.358Z,54.89
2017-03-07T04:56:52.660Z,55.75
2017-03-07T04:58:01.973Z,54.79
2017-03-07T04:59:11.738Z,54.79
2017-03-07T05:00:21.583Z,54.89
2017-03-07T05:01:30.917Z,54.89
2017-03-07T05:02:40.250Z,54.99
2017-03-07T05:03:49.990Z,54.79
2017-03-07T05:04:59.332Z,54.89
2017-03-07T05:06:09.161Z,54.7
2017-03-07T05:07:19.354Z,55.08
2017-03-07T05:08:29.131Z,54.89
2017-03-07T05:09:38.907Z,54.89
2017-03-07T05:10:48.664Z,54.96
2017-03-07T05:11:58.469Z,54.86
2017-03-07T05:13:08.214Z,54.77
2017-03-07T05:14:18.388Z,54.96
2017-03-07T05:15:28.562Z,54.77
2017-03-07T05:16:38.304Z,55.73
2017-03-07T05:17:48.549Z,55.63
2017-03-07T05:18:58.770Z,55.65
2017-03-07T05:20:08.531Z,55.63
2017-03-07T05:21:17.848Z,55.27
2017-03-07T05:22:27.598Z,55.56
2017-03-07T05:23:37.827Z,55.44
2017-03-07T05:24:47.148Z,55.44
2017-03-07T05:25:56.888Z,55.34
2017-03-07T05:27:07.071Z,55.34
2017-03-07T05:28:16.827Z,55.91
2017-03-07T05:29:26.641Z,55.56
2017-03-07T05:30:35.950Z,55.75
2017-03-07T05:31:45.710Z,55.73
2017-03-07T05:32:55.460Z,55.73
2017-03-07T05:34:04.800Z,55.53
2017-03-07T05:35:14.606Z,55.53
2017-03-07T05:36:24.344Z,56.1
2017-03-07T05:37:34.097Z,55.85
2017-03-07T05:38:43.430Z,56.01
2017-03-07T05:39:52.743Z,56.13
2017-03-07T05:41:02.133Z,55.27
2017-03-07T05:42:11.890Z,55.34
2017-03-07T05:43:21.207Z,55.36
2017-03-07T05:44:30.960Z,55.44
2017-03-07T05:45:40.713Z,55.63
2017-03-07T05:46:50.089Z,55.53
2017-03-07T05:47:59.863Z,55.44
2017-03-07T05:49:09.620Z,55.91
2017-03-07T05:50:19.365Z,55.63
2017-03-07T05:51:29.118Z,55.63
2017-03-07T05:52:38.952Z,55.63
2017-03-07T05:53:48.261Z,55.82
2017-03-07T05:54:58.021Z,55.82
2017-03-07T05:56:08.216Z,55.91
2017-03-07T05:57:18.387Z,55.34
2017-03-07T05:58:28.637Z,55.34
2017-03-07T05:59:38.387Z,55.44
2017-03-07T06:00:48.599Z,55.53
2017-03-07T06:01:58.352Z,55.44
2017-03-07T06:03:08.099Z,55.53
2017-03-07T06:04:17.895Z,55.82
2017-03-07T06:05:27.205Z,55.53
2017-03-07T06:06:36.512Z,55.44
2017-03-07T06:07:46.711Z,55.63
2017-03-07T06:08:56.474Z,54.86
2017-03-07T06:10:06.356Z,54.77
2017-03-07T06:11:16.129Z,54.79
2017-03-07T06:12:25.880Z,54.86
2017-03-07T06:13:35.653Z,54.86
2017-03-07T06:14:45.825Z,54.67
2017-03-07T06:15:55.628Z,54.89
2017-03-07T06:17:05.389Z,54.86
2017-03-07T06:18:15.142Z,54.77
2017-03-07T06:19:24.497Z,55.05
2017-03-07T06:20:34.261Z,54.86
2017-03-07T06:21:44.944Z,55.15
2017-03-07T06:22:55.143Z,55.15
2017-03-07T06:24:05.774Z,55.05
2017-03-07T06:25:15.961Z,55.05
2017-03-07T06:26:25.723Z,54.77
2017-03-07T06:27:35.966Z,55.34
2017-03-07T06:28:46.155Z,54.57
2017-03-07T06:29:55.486Z,54.57
2017-03-07T06:31:05.251Z,54.57
2017-03-07T06:32:15.010Z,54.77
2017-03-07T06:33:25.258Z,54.48
2017-03-07T06:34:34.615Z,54.67
2017-03-07T06:35:43.924Z,54.77
2017-03-07T06:36:53.252Z,54.77
2017-03-07T06:38:03.878Z,54.67
2017-03-07T06:39:13.239Z,54.57
2017-03-07T06:40:23.447Z,54.67
2017-03-07T06:41:32.764Z,54.86
2017-03-07T06:42:42.951Z,54.57
2017-03-07T06:43:52.264Z,54.57
2017-03-07T06:45:02.077Z,54.57
2017-03-07T06:46:11.381Z,54.38
2017-03-07T06:47:21.124Z,54.28
2017-03-07T06:48:30.436Z,54.86
2017-03-07T06:49:40.222Z,54.96
2017-03-07T06:50:49.594Z,54.19
2017-03-07T06:51:58.897Z,55.05
2017-03-07T06:53:09.128Z,55.24
2017-03-07T06:54:19.298Z,54.48
2017-03-07T06:55:29.055Z,54.28
2017-03-07T06:56:39.288Z,54.28
2017-03-07T06:57:49.065Z,54.1
2017-03-07T06:58:58.375Z,54.48
2017-03-07T07:00:08.123Z,54.48
2017-03-07T07:01:17.889Z,54.19
2017-03-07T07:02:28.575Z,54.86
2017-03-07T07:03:38.328Z,55.34
2017-03-07T07:04:48.969Z,55.05
2017-03-07T07:05:58.283Z,54.67
2017-03-07T07:07:07.619Z,55.05
2017-03-07T07:08:17.848Z,54.96
2017-03-07T07:09:27.189Z,55.05
2017-03-07T07:10:37.839Z,54.77
2017-03-07T07:11:47.599Z,54.48
2017-03-07T07:12:57.808Z,55.24
2017-03-07T07:14:08.047Z,54.38
2017-03-07T07:15:17.804Z,54.38
2017-03-07T07:16:28.431Z,54.1
2017-03-07T07:17:37.737Z,54.28
2017-03-07T07:18:47.062Z,54.38
2017-03-07T07:19:56.871Z,54.1
2017-03-07T07:21:07.082Z,54
2017-03-07T07:22:16.849Z,54.38
2017-03-07T07:23:26.598Z,53.81
2017-03-07T07:24:36.789Z,53.81
2017-03-07T07:25:46.154Z,53.71
2017-03-07T07:26:55.463Z,53.62
2017-03-07T07:28:05.205Z,53.71
2017-03-07T07:29:15.385Z,53.23
2017-03-07T07:30:25.576Z,53.04
2017-03-07T07:31:35.805Z,53.23
2017-03-07T07:32:45.998Z,53.52
2017-03-07T07:33:55.758Z,53.14
2017-03-07T07:35:05.499Z,53.04
2017-03-07T07:36:16.115Z,52.85
2017-03-07T07:37:25.492Z,53.04
2017-03-07T07:38:35.267Z,52.75
2017-03-07T07:39:44.604Z,53.23
2017-03-07T07:40:53.937Z,52.95
2017-03-07T07:42:03.291Z,52.56
2017-03-07T07:43:12.664Z,52.47
2017-03-07T07:44:22.860Z,52.18
2017-03-07T07:45:33.063Z,52.18
2017-03-07T07:46:42.857Z,52.28
2017-03-07T07:47:52.157Z,52.37
2017-03-07T07:49:02.161Z,52.66
2017-03-07T07:50:11.515Z,52.09
2017-03-07T07:51:21.704Z,52.18
2017-03-07T07:52:31.892Z,52.56
2017-03-07T07:53:41.638Z,52.47
2017-03-07T07:54:51.439Z,52.47
2017-03-07T07:56:00.744Z,52.28
2017-03-07T07:57:10.945Z,52.09
2017-03-07T07:58:22.015Z,52.56
2017-03-07T07:59:32.203Z,52.09
2017-03-07T08:00:41.725Z,52.18
2017-03-07T08:01:51.930Z,51.79
2017-03-07T08:03:01.252Z,52.18
2017-03-07T08:04:11.009Z,52.09
2017-03-07T08:05:20.762Z,51.89
2017-03-07T08:06:30.546Z,51.99
2017-03-07T08:07:40.288Z,51.99
2017-03-07T08:08:50.037Z,52.18
2017-03-07T08:09:59.373Z,52.11
2017-03-07T08:11:09.584Z,51.82
2017-03-07T08:12:18.961Z,51.82
2017-03-07T08:13:29.194Z,51.82
2017-03-07T08:14:38.940Z,51.92
2017-03-07T08:15:48.267Z,51.92
2017-03-07T08:16:58.482Z,51.92
2017-03-07T08:18:08.295Z,51.82
2017-03-07T08:19:18.536Z,51.73
2017-03-07T08:20:28.310Z,51.63
2017-03-07T08:21:37.631Z,52.01
2017-03-07T08:22:47.372Z,51.44
2017-03-07T08:23:56.749Z,51.63
2017-03-07T08:25:06.078Z,51.63
2017-03-07T08:26:15.406Z,51.56
2017-03-07T08:27:25.607Z,51.46
2017-03-07T08:28:34.909Z,51.65
2017-03-07T08:29:44.289Z,51.85
2017-03-07T08:30:53.606Z,51.18
2017-03-07T08:32:04.233Z,51.08
2017-03-07T08:33:14.442Z,51.37
2017-03-07T08:34:23.748Z,50.99
2017-03-07T08:35:33.980Z,51.18
2017-03-07T08:36:43.744Z,51.08
2017-03-07T08:37:53.495Z,50.79
2017-03-07T08:39:04.136Z,50.7
2017-03-07T08:40:14.770Z,50.92
2017-03-07T08:41:25.027Z,50.79
2017-03-07T08:42:34.794Z,50.82
2017-03-07T08:43:45.433Z,50.73
2017-03-07T08:44:54.757Z,50.89
2017-03-07T08:46:04.970Z,50.73
2017-03-07T08:47:15.229Z,50.82
2017-03-07T08:48:25.430Z,50.73
2017-03-07T08:49:34.737Z,51.01
2017-03-07T08:50:44.920Z,51.01
2017-03-07T08:51:54.669Z,51.01
2017-03-07T08:53:04.514Z,50.73
2017-03-07T08:54:13.857Z,51.01
2017-03-07T08:55:24.053Z,50.92
2017-03-07T08:56:34.274Z,50.73
2017-03-07T08:57:44.082Z,50.92
2017-03-07T08:58:54.055Z,50.73
2017-03-07T09:00:04.034Z,51.2
2017-03-07T09:01:13.997Z,50.82
2017-03-07T09:02:24.248Z,51.4
2017-03-07T09:03:35.326Z,51.1
2017-03-07T09:04:45.469Z,51.3
2017-03-07T09:05:56.549Z,51.3
2017-03-07T09:07:06.765Z,51.68
2017-03-07T09:08:16.510Z,51.68
2017-03-07T09:09:25.844Z,51.59
2017-03-07T09:10:35.207Z,51.59
2017-03-07T09:11:44.961Z,51.68
2017-03-07T09:12:55.175Z,51.59
2017-03-07T09:14:05.371Z,51.68
2017-03-07T09:15:15.585Z,51.4
2017-03-07T09:16:24.950Z,51.4
2017-03-07T09:17:34.696Z,51.49
2017-03-07T09:18:44.888Z,51.59
2017-03-07T09:19:55.526Z,51.49
2017-03-07T09:21:05.286Z,51.68
2017-03-07T09:22:15.534Z,51.49
2017-03-07T09:23:24.858Z,51.4
2017-03-07T09:24:34.627Z,51.4
2017-03-07T09:25:44.822Z,51.68
2017-03-07T09:26:55.441Z,51.4
2017-03-07T09:28:05.686Z,51.68
2017-03-07T09:29:14.991Z,51.78
2017-03-07T09:30:24.296Z,51.68
2017-03-07T09:31:35.354Z,51.68
2017-03-07T09:32:45.995Z,51.68
2017-03-07T09:33:55.910Z,51.68
2017-03-07T09:35:06.966Z,51.59
2017-03-07T09:36:16.278Z,51.68
2017-03-07T09:37:25.599Z,51.78
2017-03-07T09:38:34.920Z,51.59
2017-03-07T09:39:44.758Z,51.87
2017-03-07T09:40:54.511Z,51.49
2017-03-07T09:42:03.849Z,51.78
2017-03-07T09:43:14.065Z,51.4
2017-03-07T09:44:24.287Z,51.59
2017-03-07T09:45:33.680Z,51.59
2017-03-07T09:46:43.446Z,51.68
2017-03-07T09:47:53.198Z,51.68
2017-03-07T09:49:02.500Z,51.59
2017-03-07T09:50:12.248Z,51.68
2017-03-07T09:51:21.606Z,51.68
2017-03-07T09:52:31.366Z,51.4
2017-03-07T09:53:41.104Z,51.4
2017-03-07T09:54:51.297Z,51.4
2017-03-07T09:56:01.499Z,51.4
2017-03-07T09:57:11.308Z,51.68
2017-03-07T09:58:21.065Z,51.68
2017-03-07T09:59:31.714Z,51.87
2017-03-07T10:00:41.467Z,51.68
2017-03-07T10:01:50.773Z,51.4
2017-03-07T10:03:01.474Z,51.68
2017-03-07T10:04:11.231Z,51.4
2017-03-07T10:05:20.980Z,51.4
2017-03-07T10:06:30.723Z,51.4
2017-03-07T10:07:40.474Z,51.49
2017-03-07T10:08:50.272Z,51.42
2017-03-07T10:10:00.484Z,51.71
2017-03-07T10:11:10.669Z,51.71
2017-03-07T10:12:21.303Z,51.81
2017-03-07T10:13:30.624Z,51.42
2017-03-07T10:14:39.997Z,51.42
2017-03-07T10:15:50.195Z,51.14
2017-03-07T10:16:59.947Z,50.84
2017-03-07T10:18:09.261Z,51.42
2017-03-07T10:19:19.025Z,51.04
2017-03-07T10:20:29.291Z,51.23
2017-03-07T10:21:38.612Z,50.94
2017-03-07T10:22:48.368Z,50.84
2017-03-07T10:23:58.115Z,51.04
2017-03-07T10:25:07.885Z,50.84
2017-03-07T10:26:18.161Z,50.94
2017-03-07T10:27:27.906Z,50.68
2017-03-07T10:28:37.665Z,50.75
2017-03-07T10:29:46.976Z,51.16
2017-03-07T10:30:56.726Z,50.87
2017-03-07T10:32:06.976Z,50.87
2017-03-07T10:33:16.723Z,51.06
2017-03-07T10:34:26.928Z,50.49
2017-03-07T10:35:37.566Z,50.78
2017-03-07T10:36:47.778Z,50.29
2017-03-07T10:37:57.593Z,50.2
2017-03-07T10:39:07.363Z,50.39
2017-03-07T10:40:18.443Z,50.2
2017-03-07T10:41:28.245Z,50.29
2017-03-07T10:42:37.569Z,49.82
2017-03-07T10:43:47.815Z,50.32
2017-03-07T10:44:57.580Z,50.13
2017-03-07T10:46:06.913Z,49.84
2017-03-07T10:47:17.102Z,49.93
2017-03-07T10:48:26.421Z,49.93
2017-03-07T10:49:36.663Z,50.13
2017-03-07T10:50:47.306Z,49.84
2017-03-07T10:51:57.078Z,49.74
2017-03-07T10:53:07.264Z,49.84
2017-03-07T10:54:16.998Z,49.74
2017-03-07T10:55:26.363Z,50.13
2017-03-07T10:56:36.111Z,50.13
2017-03-07T10:57:47.188Z,50.03
2017-03-07T10:58:58.258Z,49.74
2017-03-07T11:00:08.026Z,49.93
2017-03-07T11:01:18.713Z,49.67
2017-03-07T11:02:28.034Z,50.05
2017-03-07T11:03:37.371Z,50.25
2017-03-07T11:04:46.688Z,50.15
2017-03-07T11:05:55.998Z,50.15
2017-03-07T11:07:05.830Z,50.15
2017-03-07T11:08:15.154Z,50.25
2017-03-07T11:09:24.895Z,50.44
2017-03-07T11:10:35.525Z,49.77
2017-03-07T11:11:46.143Z,49.77
2017-03-07T11:12:55.524Z,49.77
2017-03-07T11:14:04.845Z,49.96
2017-03-07T11:15:15.459Z,49.87
2017-03-07T11:16:24.812Z,49.67
2017-03-07T11:17:34.565Z,49.96
2017-03-07T11:18:43.937Z,49.77
2017-03-07T11:19:54.119Z,49.41
2017-03-07T11:21:03.869Z,49.41
2017-03-07T11:22:13.182Z,49.19
2017-03-07T11:23:22.939Z,49.48
2017-03-07T11:24:32.759Z,49.38
2017-03-07T11:25:42.973Z,49.69
2017-03-07T11:26:52.733Z,49.31
2017-03-07T11:28:02.476Z,49.29
2017-03-07T11:29:11.840Z,49.12
2017-03-07T11:30:21.663Z,49.12
2017-03-07T11:31:30.963Z,49.31
2017-03-07T11:32:40.732Z,48.74
2017-03-07T11:33:50.926Z,48.93
2017-03-07T11:35:01.109Z,49.02
2017-03-07T11:36:11.013Z,48.93
2017-03-07T11:37:20.785Z,48.74
2017-03-07T11:38:30.973Z,48.83
2017-03-07T11:39:41.155Z,48.64
2017-03-07T11:40:51.732Z,48.83
2017-03-07T11:42:01.986Z,48.83
2017-03-07T11:43:12.211Z,48.74
2017-03-07T11:44:22.432Z,48.74
2017-03-07T11:45:31.753Z,48.83
2017-03-07T11:46:41.521Z,48.64
2017-03-07T11:47:51.327Z,48.74
2017-03-07T11:49:01.105Z,48.93
2017-03-07T11:50:11.302Z,48.93
2017-03-07T11:51:21.067Z,48.74
2017-03-07T11:52:30.833Z,48.54
2017-03-07T11:53:40.636Z,48.35
2017-03-07T11:54:50.818Z,48.64
2017-03-07T11:56:01.449Z,48.83
2017-03-07T11:57:11.641Z,48.25
2017-03-07T11:58:21.812Z,48.45
2017-03-07T11:59:31.615Z,48.25
2017-03-07T12:00:41.797Z,48.35
2017-03-07T12:01:52.010Z,48.35
2017-03-07T12:03:02.203Z,48.54
2017-03-07T12:04:11.952Z,48.54
2017-03-07T12:05:21.317Z,48.35
2017-03-07T12:06:31.493Z,48.54
2017-03-07T12:07:41.240Z,48.64
2017-03-07T12:08:50.977Z,48.25
2017-03-07T12:10:01.182Z,48.25
2017-03-07T12:11:11.442Z,47.58
2017-03-07T12:12:21.648Z,47.68
2017-03-07T12:13:31.422Z,47.97
2017-03-07T12:14:41.179Z,47.77
2017-03-07T12:15:50.956Z,47.87
2017-03-07T12:17:01.209Z,47.97
2017-03-07T12:18:11.415Z,47.77
2017-03-07T12:19:20.740Z,47.97
2017-03-07T12:20:30.937Z,47.87
2017-03-07T12:21:41.146Z,47.49
2017-03-07T12:22:50.946Z,47.58
2017-03-07T12:24:01.569Z,47.77
2017-03-07T12:25:11.774Z,47.77
2017-03-07T12:26:22.415Z,47.66
2017-03-07T12:27:32.173Z,47.77
2017-03-07T12:28:41.969Z,47.75
2017-03-07T12:29:52.146Z,47.68
2017-03-07T12:31:01.454Z,47.75
2017-03-07T12:32:11.648Z,47.66
2017-03-07T12:33:20.964Z,47.46
2017-03-07T12:34:31.208Z,47.56
2017-03-07T12:35:40.956Z,47.56
2017-03-07T12:36:50.748Z,47.46
2017-03-07T12:38:00.516Z,47.85
2017-03-07T12:39:09.836Z,47.94
2017-03-07T12:40:19.193Z,47.94
2017-03-07T12:41:29.386Z,47.66
2017-03-07T12:42:40.033Z,47.75
2017-03-07T12:43:49.345Z,47.66
2017-03-07T12:44:59.530Z,47.75
2017-03-07T12:46:08.890Z,47.85
2017-03-07T12:47:19.063Z,47.85
2017-03-07T12:48:28.822Z,47.85
2017-03-07T12:49:38.162Z,47.66
2017-03-07T12:50:48.344Z,47.75
2017-03-07T12:51:58.161Z,47.75
2017-03-07T12:53:07.478Z,48.04
2017-03-07T12:54:16.814Z,47.66
2017-03-07T12:55:27.008Z,47.66
2017-03-07T12:56:36.352Z,47.66
2017-03-07T12:57:46.163Z,47.94
2017-03-07T12:58:55.476Z,48.13
2017-03-07T13:00:05.253Z,48.33
2017-03-07T13:01:15.026Z,48.4
2017-03-07T13:02:24.783Z,48.21
2017-03-07T13:03:34.153Z,48.49
2017-03-07T13:04:43.469Z,48.4
2017-03-07T13:05:53.654Z,48.49
2017-03-07T13:07:04.292Z,48.3
2017-03-07T13:08:14.054Z,48.4
2017-03-07T13:09:24.311Z,48.4
2017-03-07T13:10:34.104Z,48.49
2017-03-07T13:12:58.686Z,48.3
2017-03-07T13:14:09.428Z,48.4
2017-03-07T13:15:18.917Z,48.4
2017-03-07T13:16:29.649Z,48.4
2017-03-07T13:17:40.797Z,48.21
2017-03-07T13:18:51.082Z,48.3
2017-03-07T13:20:01.702Z,48.3
2017-03-07T13:21:11.527Z,48.3
2017-03-07T13:22:21.282Z,48.4
2017-03-07T13:23:30.617Z,47.92
2017-03-07T13:24:40.833Z,48.02
2017-03-07T13:25:50.608Z,48.4
2017-03-07T13:27:00.853Z,48.4
2017-03-07T13:28:11.052Z,47.92
2017-03-07T13:29:20.815Z,48.4
2017-03-07T13:30:30.579Z,48.3
2017-03-07T13:31:40.781Z,48.4
2017-03-07T13:32:51.043Z,48.3
2017-03-07T13:34:00.814Z,47.92
2017-03-07T13:35:11.021Z,48.3
2017-03-07T13:36:20.803Z,48.28
2017-03-07T13:37:31.004Z,48.47
2017-03-07T13:38:41.239Z,48.57
2017-03-07T13:39:51.434Z,48.66
2017-03-07T13:41:01.207Z,48.76
2017-03-07T13:42:11.403Z,48.47
2017-03-07T13:43:21.610Z,48.47
2017-03-07T13:44:31.431Z,48.38
2017-03-07T13:45:40.760Z,48.38
2017-03-07T13:46:50.517Z,48.28
2017-03-07T13:48:00.316Z,48.28
2017-03-07T13:49:10.080Z,48.38
2017-03-07T13:50:19.879Z,48.47
2017-03-07T13:51:29.638Z,48.47
2017-03-07T13:52:39.851Z,48.47
2017-03-07T13:53:50.064Z,48.57
2017-03-07T13:54:59.405Z,48.85
2017-03-07T13:56:09.658Z,48.66
2017-03-07T13:57:19.424Z,48.76
2017-03-07T13:58:29.629Z,48.76
2017-03-07T13:59:39.385Z,48.95
2017-03-07T14:00:49.590Z,48.76
2017-03-07T14:01:59.408Z,48.47
2017-03-07T14:03:09.160Z,48.57
2017-03-07T14:04:19.791Z,48.76
2017-03-07T14:05:29.112Z,48.76
2017-03-07T14:06:39.308Z,48.66
2017-03-07T14:07:49.139Z,48.47
2017-03-07T14:08:59.767Z,48.85
2017-03-07T14:10:09.536Z,48.85
2017-03-07T14:11:19.730Z,48.76
2017-03-07T14:12:29.956Z,48.76
2017-03-07T14:13:39.323Z,48.76
2017-03-07T14:14:49.082Z,48.76
2017-03-07T14:15:58.851Z,48.76
2017-03-07T14:17:08.648Z,48.66
2017-03-07T14:18:18.412Z,48.66
2017-03-07T14:19:28.235Z,48.66
2017-03-07T14:20:38.874Z,48.66
2017-03-07T14:21:48.644Z,48.47
2017-03-07T14:22:58.860Z,48.76
2017-03-07T14:24:08.635Z,48.76
2017-03-07T14:25:18.468Z,48.76
2017-03-07T14:26:28.258Z,48.85
2017-03-07T14:27:38.473Z,48.85
2017-03-07T14:28:48.668Z,48.57
2017-03-07T14:29:57.975Z,48.64
2017-03-07T14:31:07.938Z,48.83
2017-03-07T14:32:17.284Z,49.15
2017-03-07T14:33:27.051Z,48.95
2017-03-07T14:34:37.242Z,48.83
2017-03-07T14:35:47.018Z,49.05
2017-03-07T14:36:57.256Z,49.02
2017-03-07T14:38:07.468Z,49.31
2017-03-07T14:39:16.837Z,49.31
2017-03-07T14:40:26.628Z,49.15
2017-03-07T14:41:36.429Z,49.52
2017-03-07T14:42:46.690Z,49.12
2017-03-07T14:43:56.459Z,49.5
2017-03-07T14:45:06.256Z,49.6
2017-03-07T14:46:15.580Z,49.15
2017-03-07T14:47:25.779Z,49.33
2017-03-07T14:48:35.584Z,49.02
2017-03-07T14:49:45.788Z,49.21
2017-03-07T14:50:55.539Z,49.6
2017-03-07T14:52:05.784Z,49.31
2017-03-07T14:53:15.529Z,49.79
2017-03-07T14:54:25.766Z,49.69
2017-03-07T14:55:35.102Z,49.79
2017-03-07T14:56:44.864Z,49.79
2017-03-07T14:57:54.181Z,49.79
2017-03-07T14:59:03.933Z,49.6
2017-03-07T15:00:13.756Z,49.69
2017-03-07T15:01:23.971Z,49.79
2017-03-07T15:02:34.182Z,49.69
2017-03-07T15:03:43.531Z,49.6
2017-03-07T15:04:52.864Z,49.88